createdAt,value
2022-11-08T00:00:31.052Z,1.97
2022-11-08T00:06:17.741Z,2.01
2022-11-08T00:12:04.750Z,1.85
2022-11-08T00:17:35.761Z,1.77
2022-11-08T00:23:04.988Z,1.68
2022-11-08T00:28:34.054Z,1.69
2022-11-08T00:34:04.795Z,1.64
2022-11-08T00:39:34.126Z,1.39
2022-11-08T00:45:03.515Z,1.21
2022-11-08T00:50:33.412Z,1.10
2022-11-08T00:56:02.675Z,0.96
2022-11-08T01:01:31.236Z,0.85
2022-11-08T01:07:01.298Z,0.79
2022-11-08T01:12:30.357Z,0.71
2022-11-08T01:17:59.205Z,0.63
2022-11-08T01:23:29.329Z,0.60
2022-11-08T01:28:59.111Z,0.58
2022-11-08T01:34:28.192Z,0.55
2022-11-08T01:39:58.812Z,0.52
2022-11-08T01:46:16.123Z,0.67
2022-11-08T01:51:51.228Z,0.71
2022-11-08T01:57:25.183Z,0.72
2022-11-08T02:02:58.247Z,0.55
2022-11-08T02:08:33.145Z,0.49
2022-11-08T02:14:04.005Z,0.25
2022-11-08T02:19:40.602Z,0.03
2022-11-08T02:25:10.274Z,0.12
2022-11-08T02:30:39.886Z,-0.10
2022-11-08T02:36:12.190Z,-0.39
2022-11-08T02:41:42.575Z,-0.24
2022-11-08T02:47:11.151Z,-0.07
2022-11-08T02:52:40.394Z,-0.23
2022-11-08T02:58:11.244Z,-0.25
2022-11-08T03:03:39.996Z,-0.20
2022-11-08T03:09:09.150Z,-0.13
2022-11-08T03:14:39.766Z,-0.06
2022-11-08T03:20:09.731Z,0.01
2022-11-08T03:25:39.172Z,-0.15
2022-11-08T03:31:09.661Z,-0.01
2022-11-08T03:36:38.026Z,-0.02
2022-11-08T03:42:08.086Z,0.11
2022-11-08T03:47:40.514Z,0.18
2022-11-08T03:53:09.259Z,0.21
2022-11-08T03:58:38.172Z,0.13
2022-11-08T04:04:08.976Z,0.11
2022-11-08T04:09:38.040Z,0.00
2022-11-08T04:15:17.652Z,0.21
2022-11-08T04:21:06.907Z,0.40
2022-11-08T04:26:36.160Z,0.35
2022-11-08T04:32:05.248Z,0.44
2022-11-08T04:37:35.453Z,0.50
2022-11-08T04:43:04.308Z,0.60
2022-11-08T04:48:34.038Z,0.54
2022-11-08T04:54:06.374Z,0.57
2022-11-08T04:59:35.200Z,0.51
2022-11-08T05:05:04.327Z,0.45
2022-11-08T05:10:34.491Z,0.36
2022-11-08T05:16:04.582Z,0.25
2022-11-08T05:21:51.029Z,0.40
2022-11-08T05:27:21.424Z,0.65
2022-11-08T05:32:51.793Z,0.60
2022-11-08T05:38:21.020Z,0.63
2022-11-08T05:43:52.100Z,0.63
2022-11-08T05:49:21.310Z,0.78
2022-11-08T05:54:50.343Z,0.83
2022-11-08T06:00:21.634Z,0.79
2022-11-08T06:05:50.378Z,0.90
2022-11-08T06:11:21.744Z,0.88
2022-11-08T06:16:52.526Z,0.69
2022-11-08T06:22:21.103Z,0.68
2022-11-08T06:27:50.394Z,0.93
2022-11-08T06:33:21.876Z,0.95
2022-11-08T06:38:55.556Z,1.03
2022-11-08T06:44:24.135Z,0.95
2022-11-08T06:49:54.790Z,0.81
2022-11-08T06:55:23.077Z,0.78
2022-11-08T07:00:52.396Z,0.77
2022-11-08T07:06:22.703Z,1.05
2022-11-08T07:11:51.347Z,1.25
2022-11-08T07:17:20.325Z,1.28
2022-11-08T07:22:50.863Z,1.07
2022-11-08T07:28:21.139Z,1.29
2022-11-08T07:33:50.319Z,1.42
2022-11-08T07:39:20.449Z,1.43
2022-11-08T07:44:49.340Z,1.49
2022-11-08T07:50:18.615Z,1.57
2022-11-08T07:55:49.180Z,1.80
2022-11-08T08:01:18.267Z,1.99
2022-11-08T08:06:47.332Z,2.17
2022-11-08T08:12:17.732Z,2.21
2022-11-08T08:17:46.286Z,2.32
2022-11-08T08:23:15.313Z,2.42
2022-11-08T08:28:49.684Z,2.44
2022-11-08T08:34:18.656Z,2.52
2022-11-08T08:39:47.200Z,2.51
2022-11-08T08:45:17.737Z,2.60
2022-11-08T08:50:48.346Z,2.60
2022-11-08T08:56:17.112Z,2.67
2022-11-08T09:01:47.423Z,2.51
2022-11-08T09:07:18.270Z,1.99
2022-11-08T09:12:47.513Z,2.06
2022-11-08T09:18:17.755Z,2.27
2022-11-08T09:23:46.451Z,2.52
2022-11-08T09:29:15.777Z,2.70
2022-11-08T09:34:46.289Z,2.79
2022-11-08T09:40:18.016Z,2.80
2022-11-08T09:45:50.012Z,2.85
2022-11-08T09:51:24.519Z,2.97
2022-11-08T09:56:55.476Z,2.97
2022-11-08T10:02:25.384Z,2.97
2022-11-08T10:08:01.893Z,2.89
2022-11-08T10:13:43.552Z,2.71
2022-11-08T10:19:35.709Z,2.77
2022-11-08T10:25:19.826Z,2.45
2022-11-08T10:30:52.196Z,2.27
2022-11-08T10:36:28.808Z,2.39
2022-11-08T10:42:06.438Z,2.39
2022-11-08T10:47:36.469Z,2.57
2022-11-08T10:53:07.004Z,2.76
2022-11-08T10:58:41.520Z,2.86
2022-11-08T11:04:26.757Z,2.88
2022-11-08T11:09:55.466Z,2.92
2022-11-08T11:15:31.875Z,3.01
2022-11-08T11:21:08.609Z,2.90
2022-11-08T11:26:50.008Z,2.93
2022-11-08T11:32:26.708Z,2.95
2022-11-08T11:37:56.528Z,2.96
2022-11-08T11:43:32.418Z,3.09
2022-11-08T11:49:06.895Z,3.16
2022-11-08T11:54:36.572Z,3.19
2022-11-08T12:00:11.300Z,3.29
2022-11-08T12:05:56.275Z,3.34
2022-11-08T12:11:46.564Z,3.26
2022-11-08T12:17:37.042Z,3.13
2022-11-08T12:23:29.287Z,3.15
2022-11-08T12:29:21.983Z,3.20
2022-11-08T12:35:04.888Z,3.19
2022-11-08T12:40:46.751Z,3.09
2022-11-08T12:46:18.570Z,3.17
2022-11-08T12:52:03.529Z,3.18
2022-11-08T12:57:33.924Z,3.11
2022-11-08T13:03:29.409Z,3.10
2022-11-08T13:09:08.869Z,3.04
2022-11-08T13:14:41.475Z,3.02
2022-11-08T13:20:41.626Z,3.00
2022-11-08T13:26:22.259Z,3.06
2022-11-08T13:31:56.185Z,3.09
2022-11-08T13:37:45.436Z,3.05
2022-11-08T13:43:29.489Z,3.00
2022-11-08T13:49:14.937Z,2.86
2022-11-08T13:54:53.654Z,2.56
2022-11-08T14:00:52.199Z,2.61
2022-11-08T14:06:23.784Z,2.76
2022-11-08T14:12:02.244Z,2.80
2022-11-08T14:17:54.756Z,2.84
2022-11-08T14:23:29.251Z,2.85
2022-11-08T14:29:01.441Z,2.74
2022-11-08T14:34:32.897Z,2.77
2022-11-08T14:40:01.641Z,2.81
2022-11-08T14:45:30.917Z,2.73
2022-11-08T14:51:00.503Z,2.59
2022-11-08T14:56:27.006Z,2.36
2022-11-08T15:01:54.231Z,2.06
2022-11-08T15:07:21.814Z,2.13
2022-11-08T15:12:48.903Z,2.26
2022-11-08T15:18:18.320Z,2.24
2022-11-08T15:23:53.289Z,1.98
2022-11-08T15:29:23.631Z,2.01
2022-11-08T15:34:49.475Z,2.05
2022-11-08T15:40:21.164Z,2.13
2022-11-08T15:45:54.250Z,1.98
2022-11-08T15:51:24.614Z,2.14
2022-11-08T15:56:50.677Z,2.17
2022-11-08T16:02:22.979Z,2.31
2022-11-08T16:07:49.723Z,2.40
2022-11-08T16:13:26.145Z,2.49
2022-11-08T16:18:55.673Z,2.60
2022-11-08T16:24:23.190Z,2.62
2022-11-08T16:29:46.953Z,2.66
2022-11-08T16:35:17.205Z,2.73
2022-11-08T16:40:48.014Z,2.80
2022-11-08T16:46:13.499Z,2.77
2022-11-08T16:51:42.359Z,2.79
2022-11-08T16:57:32.975Z,2.76
2022-11-08T17:02:58.604Z,2.56
2022-11-08T17:08:27.504Z,2.59
2022-11-08T17:13:57.997Z,2.58
2022-11-08T17:19:25.662Z,2.42
2022-11-08T17:24:54.396Z,2.34
2022-11-08T17:30:26.990Z,1.83
2022-11-08T17:35:54.709Z,1.86
2022-11-08T17:41:25.278Z,1.94
2022-11-08T17:46:50.203Z,1.93
2022-11-08T17:52:19.495Z,1.94
2022-11-08T17:57:45.827Z,2.07
2022-11-08T18:03:15.971Z,2.15
2022-11-08T18:08:43.316Z,2.12
2022-11-08T18:14:08.286Z,2.01
2022-11-08T18:19:32.245Z,1.95
2022-11-08T18:24:59.148Z,2.04
2022-11-08T18:30:29.838Z,2.07
2022-11-08T18:35:56.580Z,2.09
2022-11-08T18:41:29.723Z,2.10
2022-11-08T18:46:59.411Z,2.09
2022-11-08T18:52:27.815Z,2.08
2022-11-08T18:57:53.915Z,2.06
2022-11-08T19:03:25.893Z,1.96
2022-11-08T19:08:58.176Z,1.92
2022-11-08T19:14:23.069Z,1.89
2022-11-08T19:19:52.152Z,1.85
2022-11-08T19:25:22.702Z,1.83
2022-11-08T19:30:53.811Z,1.74
2022-11-08T19:36:24.699Z,1.59
2022-11-08T19:41:54.743Z,1.68
2022-11-08T19:47:24.790Z,1.70
2022-11-08T19:52:54.917Z,1.68
2022-11-08T19:58:26.454Z,1.66
2022-11-08T20:03:53.395Z,1.61
2022-11-08T20:09:27.310Z,1.58
2022-11-08T20:15:03.889Z,1.51
2022-11-08T20:20:33.868Z,1.38
2022-11-08T20:26:00.936Z,1.32
2022-11-08T20:31:28.635Z,1.38
2022-11-08T20:36:51.801Z,1.49
2022-11-08T20:42:18.596Z,1.56
2022-11-08T20:47:48.099Z,1.58
2022-11-08T20:53:15.751Z,1.56
2022-11-08T20:58:43.152Z,1.60
2022-11-08T21:04:10.718Z,1.60
2022-11-08T21:09:49.030Z,1.54
2022-11-08T21:15:24.292Z,1.28
2022-11-08T21:20:52.669Z,1.12
2022-11-08T21:26:21.784Z,1.24
2022-11-08T21:31:47.755Z,1.39
2022-11-08T21:37:18.352Z,1.36
2022-11-08T21:42:48.933Z,1.31
2022-11-08T21:48:15.476Z,1.14
2022-11-08T21:53:54.070Z,0.80
2022-11-08T21:59:24.508Z,0.75
2022-11-08T22:04:56.271Z,0.86
2022-11-08T22:10:26.913Z,0.96
2022-11-08T22:15:55.967Z,1.18
2022-11-08T22:21:39.599Z,1.37
2022-11-08T22:27:04.986Z,1.46
2022-11-08T22:32:29.523Z,1.56
2022-11-08T22:38:00.682Z,1.61
2022-11-08T22:43:28.517Z,1.71
2022-11-08T22:48:57.536Z,1.68
2022-11-08T22:54:27.447Z,1.72
2022-11-08T22:59:54.083Z,1.57
2022-11-08T23:05:23.778Z,1.56
2022-11-08T23:11:10.800Z,1.52
2022-11-08T23:16:37.515Z,1.69
2022-11-08T23:22:25.572Z,1.81
2022-11-08T23:28:12.328Z,1.91
2022-11-08T23:33:45.558Z,2.01
2022-11-08T23:39:14.673Z,2.04
2022-11-08T23:44:42.700Z,2.09
2022-11-08T23:50:13.256Z,2.08
2022-11-08T23:55:42.224Z,2.13
